Time;durP1;ratioP1;P1;durP2;ratioP2;P2;SDS_P1;SDS_P2;PMS_P1;PMS_P2;Temp;Humidity;BMP_temperature;BMP_pressure;BME280_temperature;BME280_humidity;BME280_pressure;Samples;Min_cycle;Max_cycle;Signal;HPM_P1;HPM_P2
2023/10/02 00:03:50;;;;;;;10.25;2.30;;;24.30;99.90;;;;;;5017961;28;20232;-82
2023/10/02 00:06:39;;;;;;;15.82;2.80;;;24.40;99.90;;;;;;5031783;28;20204;-81
2023/10/02 00:09:12;;;;;;;13.48;2.50;;;24.40;99.90;;;;;;5031736;28;20200;-82
2023/10/02 00:11:45;;;;;;;6.78;2.20;;;24.30;99.90;;;;;;5029628;28;20243;-83
2023/10/02 00:14:22;;;;;;;10.10;2.38;;;24.40;99.90;;;;;;5024942;28;20763;-82
2023/10/02 00:17:08;;;;;;;14.65;2.70;;;24.40;99.90;;;;;;5031599;28;20362;-82
2023/10/02 00:19:40;;;;;;;11.82;2.17;;;24.40;99.90;;;;;;5032143;28;20229;-83
2023/10/02 00:22:34;;;;;;;10.60;2.65;;;24.40;99.90;;;;;;5019006;28;20277;-82
2023/10/02 00:25:07;;;;;;;13.38;3.03;;;24.40;99.90;;;;;;5020221;28;20295;-83
2023/10/02 00:27:38;;;;;;;11.65;2.78;;;24.30;99.90;;;;;;5024630;28;20329;-83
2023/10/02 00:30:13;;;;;;;7.88;2.25;;;24.30;99.90;;;;;;5031377;28;20204;-83
2023/10/02 00:32:45;;;;;;;8.27;2.25;;;24.50;99.90;;;;;;5031943;28;20292;-82
2023/10/02 00:35:17;;;;;;;7.97;2.50;;;24.50;99.90;;;;;;5020058;28;20571;-84
2023/10/02 00:37:51;;;;;;;11.52;3.15;;;24.50;99.90;;;;;;5031039;28;20580;-83
2023/10/02 00:40:26;;;;;;;11.07;2.63;;;24.50;99.90;;;;;;5027808;28;20200;-82
2023/10/02 00:42:58;;;;;;;12.15;2.78;;;24.50;99.90;;;;;;5030958;28;20592;-83
2023/10/02 00:45:30;;;;;;;11.95;2.47;;;24.20;99.90;;;;;;5031299;28;20193;-83
2023/10/02 00:50:54;;;;;;;11.23;2.70;;;24.20;99.90;;;;;;5050702;28;20193;-84
2023/10/02 00:53:37;;;;;;;13.77;3.10;;;24.30;99.90;;;;;;5051210;28;20728;-84
2023/10/02 00:56:23;;;;;;;11.80;2.35;;;24.30;99.90;;;;;;5050934;28;20718;-85
2023/10/02 00:58:58;;;;;;;12.57;2.63;;;24.30;99.90;;;;;;5050949;28;20223;-85
2023/10/02 01:01:30;;;;;;;12.60;2.70;;;24.30;99.90;;;;;;5051116;28;20667;-84
2023/10/02 01:04:11;;;;;;;11.63;2.67;;;24.50;99.90;;;;;;5042312;28;20652;-84
2023/10/02 01:09:29;;;;;;;10.15;2.00;;;24.50;99.90;;;;;;5030428;28;20288;-85
2023/10/02 01:12:02;;;;;;;12.77;2.92;;;24.60;99.90;;;;;;5030990;28;20661;-82
2023/10/02 01:14:50;;;;;;;11.38;2.45;;;24.70;99.90;;;;;;5030888;28;20236;-83
2023/10/02 01:17:22;;;;;;;10.10;2.63;;;24.60;99.90;;;;;;5031371;28;20664;-85
2023/10/02 01:19:57;;;;;;;14.27;2.85;;;24.50;99.90;;;;;;5031014;28;20204;-83
2023/10/02 01:22:30;;;;;;;9.10;2.30;;;24.50;99.90;;;;;;5031690;28;20204;-84
2023/10/02 01:25:12;;;;;;;11.10;2.42;;;24.50;99.90;;;;;;5031316;28;20279;-84
2023/10/02 01:27:46;;;;;;;14.25;2.72;;;24.60;99.90;;;;;;5034367;28;20231;-85
2023/10/02 01:30:18;;;;;;;15.90;2.60;;;24.70;99.90;;;;;;5038634;28;20197;-85
2023/10/02 01:33:14;;;;;;;16.73;3.17;;;24.80;99.90;;;;;;5038179;28;20221;-85
2023/10/02 01:35:50;;;;;;;11.95;2.75;;;24.90;99.90;;;;;;5036442;28;20196;-84
2023/10/02 01:38:30;;;;;;;9.52;2.28;;;25.10;99.90;;;;;;5036446;28;20199;-85
2023/10/02 01:41:08;;;;;;;14.13;3.08;;;25.00;99.90;;;;;;5036900;28;20197;-84
2023/10/02 01:43:43;;;;;;;11.15;2.58;;;25.00;99.90;;;;;;5036539;28;20201;-86
2023/10/02 01:46:17;;;;;;;11.68;2.30;;;25.00;99.90;;;;;;5036663;28;20729;-85
2023/10/02 01:48:49;;;;;;;15.45;3.00;;;24.90;99.90;;;;;;5037207;28;20587;-85
2023/10/02 01:51:35;;;;;;;13.55;2.97;;;24.80;99.90;;;;;;5038015;28;20252;-84
2023/10/02 01:54:15;;;;;;;14.60;2.90;;;24.90;99.90;;;;;;5036317;28;20633;-81
2023/10/02 01:56:49;;;;;;;12.70;2.80;;;25.00;99.90;;;;;;5049429;28;20204;-85
2023/10/02 01:59:19;;;;;;;11.57;3.28;;;25.20;99.90;;;;;;5039220;28;20251;-84
2023/10/02 02:01:54;;;;;;;14.20;2.90;;;25.20;99.90;;;;;;5035503;28;20739;-85
2023/10/02 02:04:27;;;;;;;12.55;2.63;;;25.30;99.90;;;;;;5036767;28;20196;-85
2023/10/02 02:06:58;;;;;;;10.48;2.80;;;25.30;99.90;;;;;;5036412;28;20211;-84
2023/10/02 02:09:30;;;;;;;11.85;2.42;;;25.30;99.90;;;;;;5035816;28;20221;-85
2023/10/02 02:12:10;;;;;;;11.05;2.65;;;25.20;99.90;;;;;;5035287;28;20618;-84
2023/10/02 02:14:49;;;;;;;10.73;2.22;;;24.90;99.90;;;;;;5035185;28;20664;-85
2023/10/02 02:17:21;;;;;;;15.63;2.90;;;24.90;99.90;;;;;;5035686;28;20668;-85
2023/10/02 02:19:52;;;;;;;10.00;2.60;;;25.10;99.90;;;;;;5034244;28;20198;-85
2023/10/02 02:22:25;;;;;;;12.85;2.78;;;25.30;99.90;;;;;;5038749;28;20203;-86
2023/10/02 02:25:00;;;;;;;11.23;2.58;;;25.30;99.90;;;;;;5037916;28;20333;-84
2023/10/02 02:27:35;;;;;;;13.27;3.00;;;25.20;99.90;;;;;;5038135;28;20197;-85
2023/10/02 02:30:10;;;;;;;11.23;3.15;;;25.40;99.90;;;;;;5042314;28;20206;-84
2023/10/02 02:32:44;;;;;;;12.45;2.80;;;25.50;99.90;;;;;;5057823;28;20200;-85
2023/10/02 02:35:16;;;;;;;12.50;2.67;;;25.50;99.90;;;;;;5056956;28;20200;-85
2023/10/02 02:37:48;;;;;;;14.10;2.55;;;25.50;99.90;;;;;;5058901;28;20205;-84
2023/10/02 02:40:25;;;;;;;11.82;2.60;;;25.80;99.90;;;;;;5055538;28;20192;-84
2023/10/02 02:43:12;;;;;;;9.10;2.35;;;25.80;99.90;;;;;;5039199;28;20201;-85
2023/10/02 02:45:45;;;;;;;7.68;2.20;;;25.80;99.90;;;;;;5034454;28;20240;-85
2023/10/02 02:48:15;;;;;;;12.30;2.58;;;26.00;99.90;;;;;;5050535;28;20220;-84
2023/10/02 02:50:48;;;;;;;10.75;2.67;;;26.10;99.90;;;;;;5059001;28;20211;-84
2023/10/02 02:53:21;;;;;;;11.15;2.65;;;26.00;99.90;;;;;;5055599;28;20969;-85
2023/10/02 02:56:14;;;;;;;11.35;2.55;;;25.70;99.90;;;;;;5051970;28;20251;-85
2023/10/02 02:58:48;;;;;;;15.90;2.85;;;25.70;99.90;;;;;;5036353;28;20197;-84
2023/10/02 03:01:22;;;;;;;16.00;2.83;;;25.60;99.90;;;;;;5037268;28;20219;-85
2023/10/02 03:03:52;;;;;;;14.23;2.53;;;25.60;99.90;;;;;;5039608;28;20196;-85
2023/10/02 03:06:24;;;;;;;13.48;2.63;;;25.70;99.90;;;;;;5038917;28;20628;-85
2023/10/02 03:08:57;;;;;;;13.68;2.60;;;25.70;99.90;;;;;;5038049;28;20263;-85
2023/10/02 03:11:32;;;;;;;9.35;2.38;;;25.80;99.90;;;;;;5038610;28;20205;-84
2023/10/02 03:14:14;;;;;;;15.85;2.88;;;25.90;99.90;;;;;;5036808;28;20307;-85
2023/10/02 03:16:45;;;;;;;11.73;2.63;;;25.80;99.90;;;;;;5034859;28;20251;-84
2023/10/02 03:19:16;;;;;;;11.60;2.63;;;26.30;99.90;;;;;;5039035;28;20213;-86
2023/10/02 03:21:47;;;;;;;9.77;2.40;;;26.30;99.90;;;;;;5039695;28;20193;-85
2023/10/02 03:24:22;;;;;;;8.98;2.55;;;26.40;99.90;;;;;;5040527;28;20208;-85
2023/10/02 03:26:56;;;;;;;10.05;2.60;;;26.40;99.90;;;;;;5036335;28;20258;-84
2023/10/02 03:29:30;;;;;;;9.43;2.50;;;26.30;99.90;;;;;;5033883;28;20232;-83
2023/10/02 03:32:01;;;;;;;7.70;2.28;;;26.40;99.90;;;;;;5035132;28;20200;-84
2023/10/02 03:34:34;;;;;;;14.43;2.30;;;26.60;99.90;;;;;;5033406;28;20192;-84
2023/10/02 03:37:14;;;;;;;11.70;2.33;;;26.60;99.90;;;;;;5037467;28;20292;-84
2023/10/02 03:39:59;;;;;;;11.90;2.65;;;26.50;99.90;;;;;;5050975;28;20211;-85
2023/10/02 03:42:33;;;;;;;13.02;2.40;;;26.40;99.90;;;;;;5040391;28;20201;-84
2023/10/02 03:45:07;;;;;;;11.55;2.40;;;26.50;99.90;;;;;;5034862;28;20197;-84
2023/10/02 03:47:38;;;;;;;10.52;2.45;;;26.50;99.90;;;;;;5033977;28;20197;-84
2023/10/02 03:50:12;;;;;;;10.80;2.50;;;26.50;99.90;;;;;;5033295;28;20358;-85
2023/10/02 03:52:45;;;;;;;15.40;3.03;;;26.50;99.90;;;;;;5033832;28;20197;-84
2023/10/02 03:55:17;;;;;;;19.13;2.88;;;26.60;99.90;;;;;;5033862;28;20205;-84
2023/10/02 03:57:52;;;;;;;10.95;2.55;;;26.40;99.90;;;;;;5034448;28;20220;-84
2023/10/02 04:00:27;;;;;;;14.90;2.90;;;26.30;99.90;;;;;;5033098;28;20197;-85
2023/10/02 04:02:59;;;;;;;10.88;2.35;;;26.30;99.90;;;;;;5033044;28;20680;-84
2023/10/02 04:05:34;;;;;;;12.43;2.60;;;26.10;99.90;;;;;;5033187;28;20251;-83
2023/10/02 04:11:03;;;;;;;14.98;2.85;;;25.50;99.90;;;;;;5016174;28;20205;-85
2023/10/02 04:13:39;;;;;;;16.50;3.08;;;25.70;99.90;;;;;;5047794;28;20242;-85
2023/10/02 04:19:02;;;;;;;12.25;2.75;;;25.80;99.90;;;;;;5052098;28;20453;-85
2023/10/02 04:21:33;;;;;;;12.40;2.97;;;25.70;99.90;;;;;;5052305;28;20203;-84
2023/10/02 04:24:09;;;;;;;11.77;2.60;;;25.50;99.90;;;;;;5011441;28;20558;-85
2023/10/02 04:26:41;;;;;;;15.63;2.92;;;25.40;99.90;;;;;;5015731;28;20236;-85
2023/10/02 04:29:26;;;;;;;11.82;2.50;;;25.40;99.90;;;;;;5036469;28;20238;-85
2023/10/02 04:34:56;;;;;;;15.68;3.15;;;25.40;99.90;;;;;;5035170;28;20184;-85
2023/10/02 04:37:31;;;;;;;17.00;3.65;;;25.40;99.90;;;;;;5051720;28;20303;-85
2023/10/02 04:40:14;;;;;;;12.45;2.55;;;25.20;99.90;;;;;;5032000;28;20204;-84
2023/10/02 04:43:09;;;;;;;12.02;2.50;;;24.90;99.90;;;;;;5031456;28;20197;-84
2023/10/02 04:45:40;;;;;;;16.83;3.40;;;25.10;99.90;;;;;;5032128;28;20197;-84
2023/10/02 04:48:13;;;;;;;17.23;3.22;;;25.00;99.90;;;;;;5011683;28;20229;-85
2023/10/02 04:50:46;;;;;;;15.95;3.00;;;25.10;99.90;;;;;;5011633;28;20194;-85
2023/10/02 04:53:22;;;;;;;18.70;3.10;;;25.10;99.90;;;;;;5011695;28;20197;-85
2023/10/02 04:58:49;;;;;;;13.13;3.08;;;25.10;99.90;;;;;;5007282;28;20587;-84
2023/10/02 05:01:41;;;;;;;12.27;2.60;;;25.20;99.90;;;;;;5021423;28;20220;-85
2023/10/02 05:04:18;;;;;;;10.07;2.50;;;25.20;99.90;;;;;;5043966;28;20201;-83
2023/10/02 05:06:59;;;;;;;15.00;2.90;;;25.30;99.90;;;;;;5051363;28;20197;-85
2023/10/02 05:09:32;;;;;;;12.40;2.70;;;25.30;99.90;;;;;;5037351;28;20244;-84
2023/10/02 05:12:06;;;;;;;9.65;2.50;;;25.40;99.90;;;;;;5032898;28;20335;-83
2023/10/02 05:14:48;;;;;;;14.45;3.00;;;25.50;99.90;;;;;;5037723;28;20293;-85
2023/10/02 05:17:19;;;;;;;13.07;2.80;;;25.40;99.90;;;;;;5027792;28;20258;-85
2023/10/02 05:22:37;;;;;;;10.80;2.50;;;25.10;99.90;;;;;;5027288;28;20442;-85
2023/10/02 05:25:07;;;;;;;12.77;2.85;;;25.20;99.90;;;;;;5032775;28;20201;-86
2023/10/02 05:27:38;;;;;;;14.35;3.38;;;25.30;99.90;;;;;;5033429;28;20221;-86
2023/10/02 05:30:13;;;;;;;14.70;3.20;;;25.40;99.90;;;;;;5035141;28;20213;-86
2023/10/02 05:32:44;;;;;;;14.07;2.90;;;25.20;99.90;;;;;;5035850;28;20384;-87
2023/10/02 05:35:23;;;;;;;13.20;2.70;;;25.30;99.90;;;;;;5032569;28;20201;-86
2023/10/02 05:37:54;;;;;;;15.00;3.40;;;25.40;99.90;;;;;;5032677;28;20209;-86
2023/10/02 05:40:42;;;;;;;14.27;2.85;;;25.40;99.90;;;;;;5035406;28;20233;-86
2023/10/02 05:43:17;;;;;;;15.40;3.35;;;25.60;99.90;;;;;;5034983;28;20193;-86
2023/10/02 05:45:53;;;;;;;13.85;2.95;;;25.80;99.90;;;;;;5034337;28;20192;-86
2023/10/02 05:48:37;;;;;;;12.93;3.00;;;25.70;99.90;;;;;;5034093;28;20232;-86
2023/10/02 05:51:15;;;;;;;14.55;3.15;;;25.70;99.90;;;;;;5033481;28;20196;-86
2023/10/02 05:53:53;;;;;;;15.35;2.72;;;25.50;99.90;;;;;;5034396;28;20198;-85
2023/10/02 05:56:25;;;;;;;15.32;3.28;;;25.30;99.90;;;;;;5035339;28;20263;-86
2023/10/02 05:58:56;;;;;;;17.63;3.15;;;25.50;99.90;;;;;;5034682;28;20233;-86
2023/10/02 06:01:27;;;;;;;19.80;3.42;;;25.60;99.90;;;;;;5020068;28;20198;-87
2023/10/02 06:04:00;;;;;;;15.98;2.85;;;25.80;99.90;;;;;;5012162;28;20252;-85
2023/10/02 06:06:38;;;;;;;20.33;3.42;;;25.70;99.90;;;;;;5029713;28;20197;-86
2023/10/02 06:09:16;;;;;;;16.10;3.10;;;25.70;99.90;;;;;;5032280;28;20235;-86
2023/10/02 06:14:38;;;;;;;17.60;3.33;;;25.70;99.90;;;;;;5034175;28;20232;-87
2023/10/02 06:17:11;;;;;;;12.35;2.85;;;25.70;99.90;;;;;;5035712;28;20201;-86
2023/10/02 06:19:48;;;;;;;12.93;2.78;;;26.00;99.90;;;;;;5036018;28;20193;-82
2023/10/02 06:22:20;;;;;;;17.13;3.38;;;26.30;99.90;;;;;;5030440;28;20262;-86
2023/10/02 06:24:51;;;;;;;17.77;3.33;;;26.70;99.90;;;;;;5036081;28;20204;-87
2023/10/02 06:27:25;;;;;;;12.05;2.88;;;26.50;99.90;;;;;;5037678;28;20219;-86
2023/10/02 06:29:57;;;;;;;14.80;3.33;;;26.20;99.90;;;;;;5038994;28;20225;-85
2023/10/02 06:32:27;;;;;;;18.77;3.65;;;25.80;99.90;;;;;;5041409;28;20197;-85
2023/10/02 06:35:00;;;;;;;14.70;3.65;;;25.80;99.90;;;;;;5050742;28;20208;-85
2023/10/02 06:37:36;;;;;;;16.38;3.50;;;25.70;99.90;;;;;;5048679;28;20197;-86
2023/10/02 06:40:13;;;;;;;21.02;3.88;;;25.60;99.90;;;;;;5022977;28;20204;-87
2023/10/02 06:42:51;;;;;;;18.52;4.00;;;25.60;99.90;;;;;;5018887;28;20202;-87
2023/10/02 06:45:25;;;;;;;12.15;4.13;;;25.80;99.90;;;;;;5028349;28;20208;-87
2023/10/02 06:47:56;;;;;;;19.20;4.88;;;25.70;99.90;;;;;;5014874;28;20452;-87
2023/10/02 06:50:31;;;;;;;17.42;4.40;;;25.80;99.90;;;;;;5026535;28;20228;-85
2023/10/02 06:53:03;;;;;;;17.45;4.35;;;25.80;99.90;;;;;;5034345;28;20204;-86
2023/10/02 06:55:34;;;;;;;16.20;4.40;;;25.90;99.90;;;;;;5034842;28;20198;-84
2023/10/02 06:58:07;;;;;;;17.52;4.40;;;25.90;99.90;;;;;;5040761;28;20204;-86
2023/10/02 07:00:54;;;;;;;16.77;4.78;;;25.80;99.90;;;;;;5035846;28;20568;-85
2023/10/02 07:03:25;;;;;;;18.55;5.50;;;25.60;99.90;;;;;;5035103;28;20200;-85
2023/10/02 07:05:57;;;;;;;18.48;4.93;;;25.20;99.90;;;;;;5031504;28;20197;-86
2023/10/02 07:08:33;;;;;;;15.63;4.95;;;25.00;99.90;;;;;;5021250;28;20193;-85
2023/10/02 07:11:11;;;;;;;20.23;5.03;;;24.90;99.90;;;;;;5024349;28;20220;-85
2023/10/02 07:13:51;;;;;;;20.75;5.15;;;24.80;99.90;;;;;;5028877;28;20251;-86
2023/10/02 07:16:23;;;;;;;15.65;4.85;;;24.50;99.90;;;;;;5025390;28;20202;-85
2023/10/02 07:18:58;;;;;;;23.80;5.40;;;24.50;99.90;;;;;;5030871;28;20315;-85
2023/10/02 07:21:30;;;;;;;22.17;5.70;;;24.30;99.90;;;;;;5049276;28;20208;-85
2023/10/02 07:24:24;;;;;;;19.40;5.88;;;24.00;99.90;;;;;;5050376;28;20616;-85
2023/10/02 07:26:56;;;;;;;21.98;6.07;;;23.80;99.90;;;;;;5021904;28;20244;-86
2023/10/02 07:29:37;;;;;;;18.15;5.88;;;23.60;99.90;;;;;;5032119;28;20268;-85
2023/10/02 07:32:13;;;;;;;20.83;6.60;;;23.40;99.90;;;;;;5033063;28;20219;-85
2023/10/02 07:34:45;;;;;;;21.42;6.35;;;23.20;99.90;;;;;;5032430;28;20670;-86
2023/10/02 07:37:21;;;;;;;18.63;5.80;;;23.00;99.90;;;;;;5029435;28;20201;-87
2023/10/02 07:39:58;;;;;;;24.15;6.80;;;22.80;99.90;;;;;;5025581;28;20197;-87
2023/10/02 07:42:33;;;;;;;23.30;6.30;;;22.60;99.90;;;;;;5032546;28;20196;-87
2023/10/02 07:45:24;;;;;;;25.70;6.13;;;22.40;99.90;;;;;;5033002;28;20267;-86
2023/10/02 07:50:50;;;;;;;19.95;6.00;;;22.10;99.90;;;;;;5009937;28;20304;-86
2023/10/02 07:53:38;;;;;;;17.05;6.07;;;22.20;99.90;;;;;;5035675;28;20220;-86
2023/10/02 07:56:16;;;;;;;25.45;5.78;;;22.20;99.90;;;;;;5035708;28;20194;-84
2023/10/02 07:58:54;;;;;;;21.77;6.65;;;22.00;99.90;;;;;;5031653;28;20216;-85
2023/10/02 08:01:27;;;;;;;29.45;7.65;;;22.10;99.90;;;;;;5020590;28;20244;-85
2023/10/02 08:04:01;;;;;;;27.80;7.22;;;22.10;99.90;;;;;;5032839;28;20207;-85
2023/10/02 08:06:36;;;;;;;23.10;6.35;;;22.00;99.90;;;;;;5032735;28;20417;-85
2023/10/02 08:09:39;;;;;;;21.48;6.30;;;21.90;99.90;;;;;;5033049;28;20828;-85
2023/10/02 08:12:29;;;;;;;22.70;5.93;;;21.90;99.90;;;;;;5030998;28;20290;-85
2023/10/02 08:15:01;;;;;;;20.77;6.60;;;21.80;99.90;;;;;;4992606;28;20567;-85
2023/10/02 08:20:24;;;;;;;21.60;6.70;;;21.80;99.90;;;;;;4992882;28;20210;-85
2023/10/02 08:22:55;;;;;;;21.05;6.07;;;21.80;99.90;;;;;;4992566;28;20198;-86
2023/10/02 08:25:27;;;;;;;24.25;6.70;;;21.80;99.90;;;;;;4992920;28;20277;-85
2023/10/02 08:28:00;;;;;;;21.65;6.40;;;21.70;99.90;;;;;;5002749;28;20206;-85
2023/10/02 08:30:36;;;;;;;22.05;6.72;;;21.70;99.90;;;;;;5007335;28;20312;-85
2023/10/02 08:33:09;;;;;;;19.63;6.32;;;21.70;99.90;;;;;;4988739;28;20285;-84
2023/10/02 08:35:46;;;;;;;20.02;6.22;;;21.70;99.90;;;;;;4990738;28;20195;-86
2023/10/02 08:38:24;;;;;;;24.55;6.82;;;21.70;99.90;;;;;;4993784;28;20669;-86
2023/10/02 08:41:02;;;;;;;22.35;6.80;;;21.80;99.90;;;;;;4994975;28;20245;-87
2023/10/02 08:43:41;;;;;;;20.30;5.93;;;21.80;99.90;;;;;;4996445;28;20264;-88
2023/10/02 08:46:19;;;;;;;24.27;7.03;;;21.70;99.90;;;;;;4976422;28;20203;-88
2023/10/02 08:48:54;;;;;;;28.35;6.50;;;21.70;99.90;;;;;;4984944;28;20229;-87
2023/10/02 08:51:32;;;;;;;21.23;6.40;;;21.80;99.90;;;;;;4987972;28;20213;-86
2023/10/02 08:54:05;;;;;;;21.83;6.45;;;21.70;99.90;;;;;;4991218;28;20689;-86
2023/10/02 08:56:48;;;;;;;20.60;6.63;;;21.70;99.90;;;;;;4979142;28;20205;-87
2023/10/02 08:59:27;;;;;;;21.60;6.30;;;21.70;99.90;;;;;;4992037;28;20206;-86
2023/10/02 09:02:13;;;;;;;21.23;6.63;;;21.70;99.90;;;;;;4993123;28;20650;-87
2023/10/02 09:05:09;;;;;;;29.05;7.63;;;21.70;99.90;;;;;;4992419;28;20289;-85
2023/10/02 09:08:00;;;;;;;28.63;7.15;;;21.70;99.90;;;;;;4991510;28;20630;-86
2023/10/02 09:10:35;;;;;;;23.33;6.85;;;21.70;99.90;;;;;;4992070;28;20811;-83
2023/10/02 09:13:19;;;;;;;23.05;6.65;;;21.70;99.90;;;;;;5006687;28;20225;-85
2023/10/02 09:15:54;;;;;;;20.95;6.47;;;21.70;99.90;;;;;;5031008;28;20197;-86
2023/10/02 09:19:07;;;;;;;21.95;6.68;;;21.60;99.90;;;;;;5028718;28;20196;-85
2023/10/02 09:21:44;;;;;;;20.73;6.70;;;21.60;99.90;;;;;;5010735;28;20317;-85
2023/10/02 09:24:23;;;;;;;23.65;7.25;;;21.60;99.90;;;;;;5025232;28;20200;-85
2023/10/02 09:27:20;;;;;;;20.98;6.93;;;21.60;99.90;;;;;;5016991;28;20224;-85
2023/10/02 09:29:46;;;;;;;23.83;7.18;;;21.60;99.90;;;;;;5028054;28;20217;-86
2023/10/02 09:32:25;;;;;;;20.63;7.10;;;21.70;99.90;;;;;;5031350;28;20236;-86
2023/10/02 09:35:14;;;;;;;22.67;7.07;;;21.60;99.90;;;;;;5033058;28;20196;-86
2023/10/02 09:37:45;;;;;;;19.10;6.13;;;21.50;99.90;;;;;;5029748;28;20261;-85
2023/10/02 09:40:17;;;;;;;29.05;7.60;;;21.50;99.90;;;;;;5028843;28;20229;-85
2023/10/02 09:42:56;;;;;;;24.70;7.43;;;21.60;99.90;;;;;;5031407;28;20231;-87
2023/10/02 09:45:30;;;;;;;28.90;7.53;;;21.60;99.90;;;;;;5031253;28;20212;-86
2023/10/02 09:48:46;;;;;;;25.55;7.70;;;21.60;99.90;;;;;;5033686;28;20247;-86
2023/10/02 09:51:06;;;;;;;27.75;7.43;;;21.60;99.90;;;;;;5035229;28;20692;-85
2023/10/02 09:53:41;;;;;;;24.02;6.95;;;21.60;99.90;;;;;;5035931;28;20332;-86
2023/10/02 09:56:20;;;;;;;22.60;6.55;;;21.60;99.90;;;;;;5034924;28;20251;-87
2023/10/02 09:58:55;;;;;;;18.42;5.90;;;21.60;99.90;;;;;;5034930;28;20200;-86
2023/10/02 10:01:37;;;;;;;26.67;7.47;;;21.60;99.90;;;;;;5017611;28;20668;-85
2023/10/02 10:07:32;;;;;;;27.35;7.45;;;21.50;99.90;;;;;;5034588;28;20424;-86
2023/10/02 10:10:28;;;;;;;20.33;7.03;;;21.50;99.90;;;;;;5038066;28;20260;-85
2023/10/02 10:13:12;;;;;;;21.08;6.95;;;21.60;99.90;;;;;;5035361;28;20230;-86
2023/10/02 10:15:43;;;;;;;23.25;7.40;;;21.60;99.90;;;;;;5027974;28;20714;-85
2023/10/02 10:18:17;;;;;;;25.52;6.80;;;21.60;99.90;;;;;;5036420;28;20251;-85
2023/10/02 10:20:48;;;;;;;23.58;7.30;;;21.60;99.90;;;;;;5034562;28;20217;-85
2023/10/02 10:23:31;;;;;;;21.52;7.43;;;21.60;99.90;;;;;;5026422;28;20201;-84
2023/10/02 10:26:07;;;;;;;25.52;7.68;;;21.60;99.90;;;;;;5040616;28;20208;-84
2023/10/02 10:28:50;;;;;;;23.33;7.13;;;21.60;99.90;;;;;;5062520;28;20196;-84
2023/10/02 10:31:29;;;;;;;29.25;7.10;;;21.60;99.90;;;;;;5052157;28;20221;-84
2023/10/02 10:34:01;;;;;;;25.38;7.18;;;21.60;99.90;;;;;;5040519;28;20205;-85
2023/10/02 10:36:46;;;;;;;20.40;6.72;;;21.60;99.90;;;;;;5035974;28;20952;-84
2023/10/02 10:40:40;;;;;;;24.30;6.88;;;21.50;99.90;;;;;;5022761;28;20229;-84
2023/10/02 10:43:00;;;;;;;23.63;6.90;;;21.50;99.90;;;;;;5022397;28;20201;-85
2023/10/02 10:45:34;;;;;;;25.15;7.60;;;21.60;99.90;;;;;;5039866;28;20278;-86
2023/10/02 10:48:18;;;;;;;26.48;7.15;;;21.60;99.90;;;;;;5040529;28;20261;-86
2023/10/02 10:50:57;;;;;;;19.08;6.30;;;21.60;99.90;;;;;;5039649;28;20290;-85
2023/10/02 10:53:32;;;;;;;29.42;7.47;;;21.60;99.90;;;;;;5040464;28;20205;-85
2023/10/02 10:56:19;;;;;;;26.70;7.35;;;21.60;99.90;;;;;;5031372;28;20201;-84
2023/10/02 10:58:54;;;;;;;30.85;7.90;;;21.50;99.90;;;;;;5018934;28;20205;-83
2023/10/02 11:01:26;;;;;;;21.23;6.78;;;21.60;99.90;;;;;;5036178;28;20236;-84
2023/10/02 11:04:07;;;;;;;25.80;7.13;;;21.60;99.90;;;;;;5030131;28;20662;-84
2023/10/02 11:06:46;;;;;;;25.92;6.75;;;21.60;99.90;;;;;;5035106;28;20261;-86
2023/10/02 11:09:20;;;;;;;27.35;7.15;;;21.60;99.90;;;;;;5038403;28;20224;-85
2023/10/02 11:11:54;;;;;;;28.30;7.60;;;21.60;99.90;;;;;;5037521;28;20313;-85
2023/10/02 11:14:44;;;;;;;20.30;6.63;;;21.70;99.90;;;;;;5016411;28;20294;-84
2023/10/02 11:17:32;;;;;;;25.92;6.60;;;21.70;99.90;;;;;;5036109;28;20201;-85
2023/10/02 11:20:07;;;;;;;28.17;7.13;;;21.60;99.90;;;;;;5023074;28;20198;-84
2023/10/02 11:23:03;;;;;;;24.33;6.40;;;21.60;99.90;;;;;;5035598;28;20228;-84
2023/10/02 11:25:40;;;;;;;31.85;7.35;;;21.60;99.90;;;;;;5035990;28;20201;-84
2023/10/02 11:28:16;;;;;;;19.70;6.13;;;21.60;99.90;;;;;;5036590;28;20205;-85
2023/10/02 11:31:00;;;;;;;24.30;6.38;;;21.70;99.90;;;;;;5034345;28;20339;-85
2023/10/02 11:33:33;;;;;;;32.85;7.30;;;21.70;99.90;;;;;;5015864;28;20213;-85
2023/10/02 11:36:11;;;;;;;25.75;6.68;;;21.70;99.90;;;;;;5055170;28;20291;-83
2023/10/02 11:38:43;;;;;;;26.95;6.55;;;21.60;99.90;;;;;;5055929;28;20207;-84
2023/10/02 11:41:17;;;;;;;27.35;6.57;;;21.60;99.90;;;;;;5021259;28;20210;-84
2023/10/02 11:43:49;;;;;;;26.95;6.07;;;21.60;99.90;;;;;;5034596;28;20197;-84
2023/10/02 11:46:20;;;;;;;28.15;6.78;;;21.60;99.90;;;;;;5034160;28;20197;-83
2023/10/02 11:48:54;;;;;;;24.38;6.53;;;21.60;99.90;;;;;;5034621;28;20232;-84
2023/10/02 11:51:28;;;;;;;18.80;5.93;;;21.60;99.90;;;;;;5034671;28;20315;-83
2023/10/02 11:54:01;;;;;;;22.75;5.82;;;21.60;99.90;;;;;;5055070;28;20222;-83
2023/10/02 11:56:35;;;;;;;23.67;6.40;;;21.60;99.90;;;;;;5032526;28;20417;-84
2023/10/02 11:59:07;;;;;;;25.92;6.68;;;21.70;99.90;;;;;;5014263;28;20285;-84
2023/10/02 12:01:39;;;;;;;25.52;7.13;;;21.70;99.90;;;;;;5024517;28;20194;-84
2023/10/02 12:04:11;;;;;;;26.30;6.40;;;21.60;99.90;;;;;;5035209;28;20260;-85
2023/10/02 12:06:42;;;;;;;23.20;5.93;;;21.60;99.90;;;;;;5014483;28;20626;-84
2023/10/02 12:09:17;;;;;;;23.27;6.68;;;21.60;99.90;;;;;;5018205;28;20637;-83
2023/10/02 12:11:51;;;;;;;23.00;6.72;;;21.60;99.90;;;;;;5023155;28;20233;-84
2023/10/02 12:14:22;;;;;;;26.00;6.32;;;21.60;99.90;;;;;;5032431;28;20237;-84
2023/10/02 12:16:54;;;;;;;20.58;6.00;;;21.60;99.90;;;;;;5013618;28;20197;-84
2023/10/02 12:19:26;;;;;;;26.35;6.82;;;21.60;99.90;;;;;;5016910;28;20221;-83
2023/10/02 12:21:59;;;;;;;24.60;6.45;;;21.60;99.90;;;;;;5032963;28;20232;-83
2023/10/02 12:24:30;;;;;;;26.08;6.30;;;21.60;99.90;;;;;;5030060;28;20708;-83
2023/10/02 12:27:04;;;;;;;22.50;6.45;;;21.60;99.90;;;;;;5050758;28;20246;-83
2023/10/02 12:29:35;;;;;;;21.10;5.82;;;21.50;99.90;;;;;;5039519;28;20228;-82
2023/10/02 12:32:07;;;;;;;25.60;6.30;;;21.50;99.90;;;;;;5017115;28;20227;-84
2023/10/02 12:34:39;;;;;;;26.25;7.07;;;21.50;99.90;;;;;;5018551;28;20612;-83
2023/10/02 12:37:17;;;;;;;22.70;6.18;;;21.60;99.90;;;;;;5033247;28;20200;-83
2023/10/02 12:39:49;;;;;;;20.42;6.05;;;21.50;99.90;;;;;;5031949;28;20197;-85
2023/10/02 12:42:23;;;;;;;22.10;6.20;;;21.50;99.90;;;;;;5034103;28;20263;-83
2023/10/02 12:44:54;;;;;;;27.13;6.53;;;21.50;99.90;;;;;;5025707;28;20208;-84
2023/10/02 12:47:25;;;;;;;23.40;6.22;;;21.50;99.90;;;;;;5027608;28;20201;-83
2023/10/02 12:49:58;;;;;;;26.90;7.20;;;21.50;99.90;;;;;;5023177;28;20193;-83
2023/10/02 12:52:29;;;;;;;23.35;6.07;;;21.50;99.90;;;;;;5027053;28;20228;-83
2023/10/02 12:55:00;;;;;;;24.55;7.30;;;21.50;99.90;;;;;;5030910;28;20209;-83
2023/10/02 12:57:33;;;;;;;25.60;6.38;;;21.50;99.90;;;;;;5016058;28;20228;-84
2023/10/02 13:00:13;;;;;;;25.17;6.70;;;21.40;99.90;;;;;;5031090;28;20245;-82
2023/10/02 13:02:44;;;;;;;25.08;6.50;;;21.40;99.90;;;;;;5018827;28;20202;-82
2023/10/02 13:05:15;;;;;;;26.77;6.80;;;21.40;99.90;;;;;;5022319;28;20204;-83
2023/10/02 13:07:47;;;;;;;25.33;6.28;;;21.40;99.90;;;;;;5033509;28;20189;-82
2023/10/02 13:10:19;;;;;;;25.08;6.75;;;21.40;99.90;;;;;;5023322;28;20776;-83
2023/10/02 13:12:52;;;;;;;28.15;6.75;;;21.40;99.90;;;;;;5018074;28;20248;-83
2023/10/02 13:15:23;;;;;;;25.10;6.53;;;21.40;99.90;;;;;;5016123;28;20565;-82
2023/10/02 13:17:56;;;;;;;26.95;6.65;;;21.40;99.90;;;;;;5037647;28;20197;-83
2023/10/02 13:20:27;;;;;;;26.90;6.00;;;21.40;99.90;;;;;;5038718;28;20207;-83
2023/10/02 13:22:58;;;;;;;26.50;6.22;;;21.50;99.90;;;;;;5030847;28;20267;-83
2023/10/02 13:25:30;;;;;;;21.02;6.10;;;21.50;99.90;;;;;;5030832;28;20201;-82
2023/10/02 13:28:03;;;;;;;28.92;6.85;;;21.40;99.90;;;;;;5030527;28;20809;-84
2023/10/02 13:30:36;;;;;;;26.13;6.10;;;21.40;99.90;;;;;;5030235;28;20477;-84
2023/10/02 13:33:08;;;;;;;30.92;6.13;;;21.40;99.90;;;;;;5031281;28;20213;-84
2023/10/02 13:35:44;;;;;;;27.60;6.10;;;21.40;99.90;;;;;;5032367;28;20205;-83
2023/10/02 13:38:16;;;;;;;25.75;5.60;;;21.40;99.90;;;;;;5025396;28;20193;-83
2023/10/02 13:40:47;;;;;;;28.58;6.50;;;21.40;99.90;;;;;;5020643;28;20232;-83
2023/10/02 13:43:21;;;;;;;26.75;5.68;;;21.40;99.90;;;;;;5013941;28;20631;-82
2023/10/02 13:45:51;;;;;;;27.67;6.13;;;21.40;99.90;;;;;;5021586;28;20207;-83
2023/10/02 13:48:23;;;;;;;28.88;6.45;;;21.40;99.90;;;;;;5032734;28;20197;-83
2023/10/02 13:50:54;;;;;;;30.77;6.50;;;21.30;99.90;;;;;;5025943;28;20593;-83
2023/10/02 13:53:25;;;;;;;23.00;6.15;;;21.30;99.90;;;;;;5030709;28;20197;-82
2023/10/02 13:55:56;;;;;;;27.08;5.93;;;21.30;99.90;;;;;;5024596;28;20202;-83
2023/10/02 13:58:30;;;;;;;29.90;6.78;;;21.30;99.90;;;;;;5026229;28;20189;-82